createdAt,value
2018-03-25T00:00:17.702Z,62.43
2018-03-25T00:02:45.257Z,78.57
2018-03-25T00:05:13.597Z,67.83
2018-03-25T00:07:41.169Z,77.07
2018-03-25T00:10:08.745Z,61.80
2018-03-25T00:12:36.417Z,63.70
2018-03-25T00:15:04.010Z,59.47
2018-03-25T00:17:31.632Z,67.50
2018-03-25T00:19:59.194Z,72.77
2018-03-25T00:22:26.760Z,108.60
2018-03-25T00:24:55.994Z,61.50
2018-03-25T00:27:23.584Z,71.20
2018-03-25T00:29:51.141Z,69.23
2018-03-25T00:32:18.712Z,63.60
2018-03-25T00:34:46.252Z,56.30
2018-03-25T00:37:13.788Z,73.07
2018-03-25T00:39:41.361Z,59.80
2018-03-25T00:42:08.905Z,70.67
2018-03-25T00:44:36.498Z,73.83
2018-03-25T00:47:04.028Z,56.60
2018-03-25T00:49:31.677Z,71.40
2018-03-25T00:52:01.961Z,64.90
2018-03-25T00:54:29.600Z,67.50
2018-03-25T00:56:57.178Z,66.20
2018-03-25T00:59:24.729Z,61.67
2018-03-25T01:01:52.298Z,59.23
2018-03-25T01:04:19.860Z,57.37
2018-03-25T01:06:47.430Z,65.23
2018-03-25T01:09:15.275Z,63.73
2018-03-25T01:11:43.613Z,62.80
2018-03-25T01:14:11.146Z,63.70
2018-03-25T01:16:39.469Z,62.13
2018-03-25T01:19:07.105Z,62.60
2018-03-25T01:21:34.673Z,60.80
2018-03-25T01:24:02.229Z,65.47
2018-03-25T01:26:29.841Z,60.93
2018-03-25T01:28:58.185Z,58.07
2018-03-25T01:31:25.763Z,61.03
2018-03-25T01:33:53.301Z,61.60
2018-03-25T01:36:21.259Z,59.10
2018-03-25T01:38:48.985Z,64.40
2018-03-25T01:41:17.332Z,67.73
2018-03-25T01:43:44.881Z,64.13
2018-03-25T01:46:13.118Z,68.53
2018-03-25T01:48:40.657Z,61.93
2018-03-25T01:51:09.150Z,60.37
2018-03-25T01:53:36.690Z,67.00
2018-03-25T01:56:04.246Z,61.37
2018-03-25T01:58:32.570Z,70.67
2018-03-25T02:01:00.126Z,58.03
2018-03-25T02:03:27.640Z,65.47
2018-03-25T02:05:55.969Z,58.50
2018-03-25T02:08:23.465Z,66.53
2018-03-25T02:10:51.046Z,70.63
2018-03-25T02:13:19.407Z,62.00
2018-03-25T02:15:48.469Z,60.37
2018-03-25T02:18:16.008Z,67.03
2018-03-25T02:20:43.656Z,62.37
2018-03-25T02:23:11.188Z,63.50
2018-03-25T02:25:39.505Z,57.23
2018-03-25T02:28:07.051Z,63.27
2018-03-25T02:30:34.603Z,52.33
2018-03-25T02:33:02.200Z,66.27
2018-03-25T02:35:29.886Z,64.90
2018-03-25T02:37:57.425Z,64.03
2018-03-25T02:40:25.159Z,58.07
2018-03-25T02:42:52.691Z,57.80
2018-03-25T02:45:21.109Z,63.37
2018-03-25T02:47:48.668Z,61.40
2018-03-25T02:50:16.217Z,60.77
2018-03-25T02:52:43.754Z,65.20
2018-03-25T02:55:12.054Z,62.07
2018-03-25T02:57:39.629Z,63.40
2018-03-25T03:00:07.201Z,62.90
2018-03-25T03:02:34.755Z,61.73
2018-03-25T03:05:02.398Z,66.43
2018-03-25T03:07:29.934Z,57.23
2018-03-25T03:09:58.276Z,60.50
2018-03-25T03:12:25.815Z,65.97
2018-03-25T03:14:53.394Z,58.20
2018-03-25T03:17:20.933Z,59.47
2018-03-25T03:19:48.473Z,56.87
2018-03-25T03:22:16.053Z,65.17
2018-03-25T03:24:43.606Z,58.43
2018-03-25T03:27:11.189Z,51.37
2018-03-25T03:29:38.765Z,59.10
2018-03-25T03:32:06.317Z,62.20
2018-03-25T03:34:33.858Z,58.97
2018-03-25T03:37:01.421Z,53.20
2018-03-25T03:39:28.989Z,67.17
2018-03-25T03:41:56.574Z,53.10
2018-03-25T03:44:24.888Z,53.67
2018-03-25T03:46:52.438Z,62.90
2018-03-25T03:49:19.968Z,58.77
2018-03-25T03:51:48.451Z,65.47
2018-03-25T03:54:16.760Z,54.70
2018-03-25T03:56:44.322Z,51.90
2018-03-25T03:59:11.832Z,51.30
2018-03-25T04:01:39.400Z,60.73
2018-03-25T04:04:06.932Z,50.60
2018-03-25T04:06:34.501Z,51.57
2018-03-25T04:09:02.093Z,59.73
2018-03-25T04:11:29.620Z,51.20
2018-03-25T04:13:57.147Z,62.43
2018-03-25T04:16:24.703Z,53.00
2018-03-25T04:18:52.236Z,60.50
2018-03-25T04:21:19.797Z,54.10
2018-03-25T04:23:47.348Z,53.33
2018-03-25T04:26:15.038Z,56.67
2018-03-25T04:28:42.596Z,51.40
2018-03-25T04:31:10.163Z,53.20
2018-03-25T04:33:37.710Z,52.77
2018-03-25T04:36:05.291Z,49.50
2018-03-25T04:38:32.821Z,53.57
2018-03-25T04:41:00.407Z,56.23
2018-03-25T04:43:27.945Z,58.00
2018-03-25T04:45:55.527Z,56.53
2018-03-25T04:48:23.082Z,50.87
2018-03-25T04:50:50.642Z,54.43
2018-03-25T04:53:18.179Z,64.47
2018-03-25T04:55:48.685Z,54.90
2018-03-25T04:58:16.993Z,57.30
2018-03-25T05:00:44.582Z,64.47
2018-03-25T05:03:12.138Z,51.10
2018-03-25T05:05:39.679Z,60.60
2018-03-25T05:08:07.534Z,59.80
2018-03-25T05:10:35.483Z,57.47
2018-03-25T05:13:03.073Z,72.70
2018-03-25T05:15:30.620Z,53.80
2018-03-25T05:17:58.189Z,53.87
2018-03-25T05:20:25.741Z,60.40
2018-03-25T05:22:53.334Z,57.17
2018-03-25T05:25:21.028Z,55.73
2018-03-25T05:27:49.363Z,56.07
2018-03-25T05:30:16.914Z,61.20
2018-03-25T05:32:44.612Z,63.20
2018-03-25T05:35:12.257Z,55.77
2018-03-25T05:37:39.814Z,59.90
2018-03-25T05:40:07.384Z,61.90
2018-03-25T05:42:34.929Z,59.00
2018-03-25T05:45:02.504Z,56.70
2018-03-25T05:47:30.836Z,64.93
2018-03-25T05:49:58.406Z,52.90
2018-03-25T05:52:25.961Z,64.80
2018-03-25T05:54:53.517Z,63.73
2018-03-25T05:57:21.070Z,61.20
2018-03-25T05:59:48.679Z,61.87
2018-03-25T06:02:16.352Z,67.73
2018-03-25T06:04:44.729Z,63.03
2018-03-25T06:07:12.299Z,64.83
2018-03-25T06:09:40.781Z,77.27
2018-03-25T06:12:09.416Z,66.03
2018-03-25T06:14:36.969Z,57.00
2018-03-25T06:17:04.724Z,70.63
2018-03-25T06:19:32.454Z,68.40
2018-03-25T06:22:00.781Z,64.47
2018-03-25T06:24:28.349Z,71.17
2018-03-25T06:26:55.968Z,73.73
2018-03-25T06:29:23.506Z,67.03
2018-03-25T06:31:51.804Z,62.20
2018-03-25T06:34:19.406Z,74.33
2018-03-25T06:36:46.948Z,71.97
2018-03-25T06:39:14.533Z,65.73
2018-03-25T06:41:42.249Z,73.53
2018-03-25T06:44:09.827Z,68.43
2018-03-25T06:46:37.566Z,67.93
2018-03-25T06:49:05.158Z,70.13
2018-03-25T06:51:32.707Z,79.70
2018-03-25T06:54:00.679Z,73.13
2018-03-25T06:56:28.242Z,84.70
2018-03-25T06:58:55.811Z,68.73
2018-03-25T07:01:23.673Z,68.30
2018-03-25T07:03:51.225Z,72.40
2018-03-25T07:06:18.947Z,90.40
2018-03-25T07:08:46.607Z,68.70
2018-03-25T07:11:14.214Z,73.10
2018-03-25T07:13:41.766Z,64.97
2018-03-25T07:16:09.392Z,76.90
2018-03-25T07:18:37.051Z,78.70
2018-03-25T07:21:04.799Z,74.17
2018-03-25T07:23:32.378Z,65.80
2018-03-25T07:25:59.920Z,66.63
2018-03-25T07:28:27.479Z,74.10
2018-03-25T07:30:55.018Z,69.80
2018-03-25T07:33:22.587Z,81.37
2018-03-25T07:35:50.906Z,79.07
2018-03-25T07:38:18.474Z,81.23
2018-03-25T07:40:46.089Z,90.90
2018-03-25T07:43:13.676Z,62.53
2018-03-25T07:45:41.230Z,60.70
2018-03-25T07:48:09.555Z,57.03
2018-03-25T07:50:37.118Z,69.87
2018-03-25T07:53:04.667Z,65.10
2018-03-25T07:55:32.265Z,64.03
2018-03-25T07:57:59.864Z,67.00
2018-03-25T08:00:27.425Z,63.93
2018-03-25T08:02:54.964Z,68.80
2018-03-25T08:05:22.529Z,60.93
2018-03-25T08:07:50.838Z,60.70
2018-03-25T08:10:18.677Z,63.57
2018-03-25T08:12:46.277Z,61.30
2018-03-25T08:15:13.829Z,65.60
2018-03-25T08:17:41.397Z,61.97
2018-03-25T08:20:08.951Z,61.37
2018-03-25T08:22:36.523Z,58.93
2018-03-25T08:25:04.062Z,61.83
2018-03-25T08:27:31.629Z,59.40
2018-03-25T08:29:59.165Z,65.30
2018-03-25T08:32:26.834Z,61.17
2018-03-25T08:34:54.389Z,54.30
2018-03-25T08:37:21.972Z,59.17
2018-03-25T08:39:49.539Z,68.00
2018-03-25T08:42:17.407Z,62.27
2018-03-25T08:44:44.980Z,64.20
2018-03-25T08:47:12.529Z,61.93
2018-03-25T08:49:40.129Z,58.97
2018-03-25T08:52:07.717Z,64.63
2018-03-25T08:54:35.288Z,63.87
2018-03-25T08:57:02.839Z,63.13
2018-03-25T08:59:30.430Z,66.13
2018-03-25T09:01:57.996Z,68.63
2018-03-25T09:04:25.719Z,62.40
2018-03-25T09:06:53.254Z,68.27
2018-03-25T09:09:21.586Z,57.80
2018-03-25T09:11:49.918Z,61.87
2018-03-25T09:14:18.005Z,54.00
2018-03-25T09:16:45.664Z,55.40
2018-03-25T09:19:13.197Z,58.97
2018-03-25T09:21:41.752Z,59.37
2018-03-25T09:24:09.514Z,60.53
2018-03-25T09:26:37.089Z,56.00
2018-03-25T09:29:04.629Z,52.30
2018-03-25T09:31:32.251Z,56.53
2018-03-25T09:33:59.785Z,61.27
2018-03-25T09:36:27.470Z,55.17
2018-03-25T09:38:55.064Z,63.47
2018-03-25T09:41:22.895Z,59.23
2018-03-25T09:43:50.622Z,57.70
2018-03-25T09:46:18.976Z,57.97
2018-03-25T09:48:46.510Z,66.17
2018-03-25T09:51:14.066Z,65.60
2018-03-25T09:53:41.633Z,62.30
2018-03-25T09:56:09.169Z,58.53
2018-03-25T09:58:36.768Z,58.43
2018-03-25T10:01:09.920Z,57.20
2018-03-25T10:03:37.529Z,60.40
2018-03-25T10:06:05.842Z,59.30
2018-03-25T10:08:33.421Z,55.30
2018-03-25T10:11:01.015Z,54.60
2018-03-25T10:13:28.599Z,48.47
2018-03-25T10:15:56.190Z,57.23
2018-03-25T10:18:24.236Z,60.03
2018-03-25T10:20:52.700Z,55.10
2018-03-25T10:23:20.282Z,54.40
2018-03-25T10:25:48.774Z,56.10
2018-03-25T10:28:16.720Z,56.20
2018-03-25T10:30:45.038Z,54.70
2018-03-25T10:33:12.802Z,52.33
2018-03-25T10:35:40.359Z,58.50
2018-03-25T10:38:08.017Z,57.97
2018-03-25T10:40:35.652Z,56.93
2018-03-25T10:43:03.224Z,53.73
2018-03-25T10:45:31.028Z,55.77
2018-03-25T10:47:58.570Z,62.87
2018-03-25T10:50:26.142Z,52.10
2018-03-25T10:52:53.690Z,62.13
2018-03-25T10:55:21.462Z,54.03
2018-03-25T10:57:49.210Z,49.97
2018-03-25T11:00:17.461Z,65.90
2018-03-25T11:02:45.221Z,59.17
2018-03-25T11:05:13.589Z,63.63
2018-03-25T11:07:41.331Z,58.57
2018-03-25T11:10:09.144Z,58.93
2018-03-25T11:12:36.700Z,53.93
2018-03-25T11:15:04.353Z,51.90
2018-03-25T11:17:32.680Z,56.20
2018-03-25T11:20:00.280Z,53.07
2018-03-25T11:22:28.774Z,52.23
2018-03-25T11:24:57.129Z,53.83
2018-03-25T11:27:24.717Z,57.10
2018-03-25T11:29:53.040Z,52.47
2018-03-25T11:32:20.782Z,55.60
2018-03-25T11:34:48.592Z,58.07
2018-03-25T11:37:16.966Z,58.37
2018-03-25T11:39:44.690Z,53.33
2018-03-25T11:42:12.261Z,59.23
2018-03-25T11:44:40.634Z,49.27
2018-03-25T11:47:08.246Z,55.77
2018-03-25T11:49:36.583Z,52.70
2018-03-25T11:52:04.161Z,55.63
2018-03-25T11:54:31.761Z,55.00
2018-03-25T11:56:59.381Z,51.27
2018-03-25T11:59:26.980Z,55.17
2018-03-25T12:01:55.364Z,50.33
2018-03-25T12:04:22.928Z,56.10
2018-03-25T12:06:50.548Z,50.97
2018-03-25T12:09:18.171Z,55.17
2018-03-25T12:11:46.565Z,54.57
2018-03-25T12:14:14.147Z,56.00
2018-03-25T12:16:41.730Z,55.70
2018-03-25T12:19:09.290Z,46.73
2018-03-25T12:21:37.656Z,56.73
2018-03-25T12:24:05.322Z,51.60
2018-03-25T12:26:32.956Z,56.10
2018-03-25T12:29:00.547Z,53.20
2018-03-25T12:31:28.898Z,62.10
2018-03-25T12:33:57.066Z,55.10
2018-03-25T12:36:24.898Z,61.80
2018-03-25T12:38:53.400Z,59.37
2018-03-25T12:41:21.123Z,50.70
2018-03-25T12:43:49.440Z,56.10
2018-03-25T12:46:17.054Z,50.43
2018-03-25T12:48:45.399Z,59.37
2018-03-25T12:51:12.985Z,51.50
2018-03-25T12:53:41.315Z,54.00
2018-03-25T12:56:08.906Z,53.60
2018-03-25T12:58:36.475Z,50.67
2018-03-25T13:01:04.522Z,53.20
2018-03-25T13:03:34.300Z,52.30
2018-03-25T13:06:01.902Z,53.07
2018-03-25T13:08:30.375Z,56.10
2018-03-25T13:10:58.031Z,52.67
2018-03-25T13:13:25.764Z,48.80
2018-03-25T13:15:53.439Z,51.83
2018-03-25T13:18:22.323Z,52.53
2018-03-25T13:27:33.592Z,57.23
2018-03-25T13:30:01.185Z,54.33
2018-03-25T13:32:28.751Z,52.60
2018-03-25T13:34:56.317Z,49.87
2018-03-25T13:37:24.628Z,56.07
2018-03-25T13:39:52.196Z,60.67
2018-03-25T13:42:19.735Z,53.97
2018-03-25T13:44:47.352Z,53.17
2018-03-25T13:47:15.900Z,48.27
2018-03-25T13:49:43.481Z,56.70
2018-03-25T13:52:11.822Z,51.60
2018-03-25T13:54:41.001Z,51.63
2018-03-25T13:57:08.598Z,52.47
2018-03-25T13:59:36.154Z,49.07
2018-03-25T14:02:03.853Z,53.27
2018-03-25T14:04:31.422Z,52.23
2018-03-25T14:06:59.022Z,52.43
2018-03-25T14:09:26.564Z,51.63
2018-03-25T14:11:54.154Z,49.43
2018-03-25T14:14:21.758Z,45.00
2018-03-25T14:16:49.321Z,54.17
2018-03-25T14:19:17.456Z,53.93
2018-03-25T14:21:45.039Z,51.30
2018-03-25T14:24:12.602Z,58.70
2018-03-25T14:26:41.006Z,55.43
2018-03-25T14:29:08.563Z,51.93
2018-03-25T14:31:36.130Z,48.67
2018-03-25T14:34:03.688Z,48.57
2018-03-25T14:36:31.273Z,46.80
2018-03-25T14:38:58.822Z,50.73
2018-03-25T14:41:27.381Z,51.83
2018-03-25T14:43:54.940Z,51.13
2018-03-25T14:46:22.551Z,53.20
2018-03-25T14:48:50.177Z,51.93
2018-03-25T14:51:17.742Z,49.83
2018-03-25T14:53:45.325Z,56.13
2018-03-25T14:56:13.369Z,46.13
2018-03-25T14:58:41.020Z,48.30
2018-03-25T15:01:08.576Z,49.63
2018-03-25T15:03:36.141Z,54.27
2018-03-25T15:06:04.108Z,54.80
2018-03-25T15:08:31.708Z,61.00
2018-03-25T15:10:59.251Z,51.67
2018-03-25T15:13:26.846Z,54.07
2018-03-25T15:15:55.148Z,51.93
2018-03-25T15:18:22.719Z,55.47
2018-03-25T15:20:51.222Z,54.40
2018-03-25T15:23:18.790Z,58.87
2018-03-25T15:25:46.337Z,55.50
2018-03-25T15:28:13.906Z,54.33
2018-03-25T15:30:41.462Z,48.80
2018-03-25T15:33:09.020Z,51.03
2018-03-25T15:35:36.571Z,46.50
2018-03-25T15:38:04.261Z,50.17
2018-03-25T15:40:31.730Z,53.03
2018-03-25T15:42:59.319Z,50.53
2018-03-25T15:45:26.901Z,55.00
2018-03-25T15:47:54.458Z,53.73
2018-03-25T15:50:22.240Z,53.13
2018-03-25T15:52:49.804Z,60.43
2018-03-25T15:55:17.449Z,52.67
2018-03-25T15:57:45.018Z,52.17
2018-03-25T16:00:12.608Z,57.83
2018-03-25T16:02:40.219Z,55.10
2018-03-25T16:05:07.797Z,70.30
2018-03-25T16:07:35.377Z,55.57
2018-03-25T16:10:02.961Z,58.43
2018-03-25T16:12:30.526Z,60.47
2018-03-25T16:14:58.880Z,53.70
2018-03-25T16:17:26.432Z,52.23
2018-03-25T16:19:53.989Z,64.30
2018-03-25T16:22:21.524Z,55.30
2018-03-25T16:24:49.273Z,59.20
2018-03-25T16:27:16.830Z,64.07
2018-03-25T16:29:44.525Z,59.50
2018-03-25T16:32:12.075Z,67.93
2018-03-25T16:34:39.698Z,64.57
2018-03-25T16:37:08.004Z,59.43
2018-03-25T16:39:35.542Z,57.10
2018-03-25T16:42:03.102Z,62.43
2018-03-25T16:44:30.668Z,60.70
2018-03-25T16:46:58.209Z,64.73
2018-03-25T16:49:26.531Z,59.70
2018-03-25T16:51:54.094Z,56.57
2018-03-25T16:54:21.656Z,74.03
2018-03-25T16:56:49.229Z,59.90
2018-03-25T16:59:16.762Z,58.63
2018-03-25T17:01:44.350Z,61.03
2018-03-25T17:04:11.923Z,58.53
2018-03-25T17:06:39.534Z,58.10
2018-03-25T17:09:07.922Z,59.60
2018-03-25T17:11:35.495Z,60.37
2018-03-25T17:14:03.050Z,67.87
2018-03-25T17:16:30.659Z,56.80
2018-03-25T17:18:58.223Z,62.20
2018-03-25T17:21:26.571Z,56.20
2018-03-25T17:23:54.122Z,62.37
2018-03-25T17:26:21.723Z,73.40
2018-03-25T17:28:49.271Z,88.70
2018-03-25T17:31:17.633Z,61.97
2018-03-25T17:33:45.172Z,65.70
2018-03-25T17:36:12.733Z,63.03
2018-03-25T17:38:40.338Z,62.53
2018-03-25T17:41:08.661Z,64.23
2018-03-25T17:43:36.216Z,64.00
2018-03-25T17:46:03.808Z,69.53
2018-03-25T17:48:31.386Z,68.90
2018-03-25T17:50:59.742Z,64.10
2018-03-25T17:53:27.298Z,62.40
2018-03-25T17:55:55.683Z,66.10
2018-03-25T17:58:23.257Z,70.43
2018-03-25T18:00:51.682Z,70.40
2018-03-25T18:03:19.265Z,64.87
2018-03-25T18:05:46.858Z,66.07
2018-03-25T18:08:15.187Z,66.10
2018-03-25T18:10:42.761Z,74.97
2018-03-25T18:13:10.408Z,72.30
2018-03-25T18:15:38.034Z,62.47
2018-03-25T18:18:05.586Z,71.57
2018-03-25T18:20:34.149Z,73.43
2018-03-25T18:23:02.472Z,72.70
2018-03-25T18:25:30.119Z,72.97
2018-03-25T18:27:57.671Z,74.20
2018-03-25T18:30:26.083Z,72.03
2018-03-25T18:32:53.651Z,69.53
2018-03-25T18:35:21.226Z,68.80
2018-03-25T18:37:48.786Z,81.87
2018-03-25T18:40:16.368Z,71.97
2018-03-25T18:42:44.030Z,93.53
2018-03-25T18:45:11.766Z,112.00
2018-03-25T18:47:39.337Z,86.10
2018-03-25T18:50:06.903Z,81.57
2018-03-25T18:52:36.055Z,86.53
2018-03-25T18:55:03.629Z,74.97
2018-03-25T18:57:31.378Z,87.10
2018-03-25T18:59:59.027Z,86.57
2018-03-25T19:02:28.530Z,82.10
2018-03-25T19:04:56.153Z,83.23
2018-03-25T19:07:23.776Z,80.93
2018-03-25T19:09:51.742Z,74.60
2018-03-25T19:12:19.332Z,74.57
2018-03-25T19:14:46.920Z,74.33
2018-03-25T19:17:15.306Z,80.53
2018-03-25T19:19:42.907Z,76.93
2018-03-25T19:22:10.500Z,83.87
2018-03-25T19:24:38.168Z,80.27
2018-03-25T19:27:06.508Z,84.80
2018-03-25T19:29:34.090Z,89.73
2018-03-25T19:32:01.665Z,85.43
2018-03-25T19:34:29.310Z,84.57
2018-03-25T19:36:56.860Z,85.97
2018-03-25T19:39:24.437Z,79.87
2018-03-25T19:41:52.014Z,93.80
2018-03-25T19:44:20.360Z,85.27
2018-03-25T19:46:47.902Z,90.63
2018-03-25T19:49:15.493Z,83.33
2018-03-25T19:51:43.153Z,83.40
2018-03-25T19:54:11.511Z,81.73
2018-03-25T19:56:39.076Z,82.60
2018-03-25T19:59:06.672Z,84.83
2018-03-25T20:01:35.157Z,74.27
2018-03-25T20:04:03.489Z,79.93
2018-03-25T20:06:31.038Z,85.83
2018-03-25T20:08:58.631Z,79.87
2018-03-25T20:11:26.174Z,91.93
2018-03-25T20:13:53.751Z,86.27
2018-03-25T20:16:21.303Z,81.73
2018-03-25T20:18:48.890Z,84.90
2018-03-25T20:21:16.449Z,107.30
2018-03-25T20:23:44.768Z,70.33
2018-03-25T20:26:12.323Z,80.80
2018-03-25T20:28:39.898Z,78.07
2018-03-25T20:31:07.476Z,84.07
2018-03-25T20:33:35.313Z,83.53
2018-03-25T20:36:02.879Z,76.83
2018-03-25T20:38:30.463Z,82.43
2018-03-25T20:40:58.025Z,79.43
2018-03-25T20:43:26.419Z,79.60
2018-03-25T20:45:53.962Z,83.40
2018-03-25T20:48:21.579Z,86.67
2018-03-25T20:50:49.347Z,86.47
2018-03-25T20:53:16.955Z,74.53
2018-03-25T20:55:44.506Z,85.47
2018-03-25T20:58:12.101Z,81.37
2018-03-25T21:00:39.651Z,106.20
2018-03-25T21:03:07.993Z,127.53
2018-03-25T21:05:35.534Z,77.67
2018-03-25T21:08:03.134Z,92.77
2018-03-25T21:10:31.718Z,76.30
2018-03-25T21:12:59.232Z,76.43
2018-03-25T21:15:26.791Z,88.33
2018-03-25T21:17:54.344Z,77.70
2018-03-25T21:20:21.914Z,80.63
2018-03-25T21:22:49.463Z,85.87
2018-03-25T21:25:17.034Z,93.40
2018-03-25T21:27:44.576Z,86.40
2018-03-25T21:30:12.142Z,83.47
2018-03-25T21:32:39.686Z,86.03
2018-03-25T21:35:07.270Z,82.43
2018-03-25T21:37:35.009Z,82.87
2018-03-25T21:40:02.794Z,88.50
2018-03-25T21:42:30.340Z,83.57
2018-03-25T21:44:57.919Z,100.27
2018-03-25T21:47:25.462Z,107.77
2018-03-25T21:49:53.089Z,103.00
2018-03-25T21:52:21.553Z,103.60
2018-03-25T21:54:49.134Z,102.43
2018-03-25T21:57:16.689Z,85.83
2018-03-25T21:59:45.063Z,90.73
2018-03-25T22:02:12.649Z,92.67
2018-03-25T22:04:40.626Z,83.93
2018-03-25T22:07:08.279Z,80.60
2018-03-25T22:09:35.959Z,88.13
2018-03-25T22:12:03.538Z,81.87
2018-03-25T22:14:31.174Z,75.83
2018-03-25T22:16:58.945Z,82.87
2018-03-25T22:19:26.605Z,81.80
2018-03-25T22:21:55.073Z,87.10
2018-03-25T22:24:22.631Z,83.10
2018-03-25T22:26:51.740Z,89.03
2018-03-25T22:29:19.278Z,91.40
2018-03-25T22:31:46.926Z,98.97
2018-03-25T22:34:14.468Z,76.57
2018-03-25T22:36:42.045Z,86.47
2018-03-25T22:39:09.576Z,93.27
2018-03-25T22:41:37.163Z,91.13
2018-03-25T22:44:04.745Z,85.53
2018-03-25T22:46:32.325Z,85.60
2018-03-25T22:48:59.884Z,89.53
2018-03-25T22:51:27.444Z,89.37
2018-03-25T22:53:55.005Z,95.30
2018-03-25T22:56:22.583Z,91.47
2018-03-25T22:58:50.236Z,106.50
2018-03-25T23:01:18.152Z,94.80
2018-03-25T23:03:46.626Z,80.87
2018-03-25T23:06:14.948Z,91.77
2018-03-25T23:08:42.507Z,91.83
2018-03-25T23:11:10.177Z,91.83
2018-03-25T23:13:37.894Z,82.87
2018-03-25T23:16:06.196Z,86.63
2018-03-25T23:18:33.804Z,102.20
2018-03-25T23:21:01.360Z,86.73
2018-03-25T23:23:28.920Z,87.60
2018-03-25T23:25:56.455Z,84.27
2018-03-25T23:28:24.019Z,85.87
2018-03-25T23:30:51.563Z,96.77
2018-03-25T23:33:19.115Z,86.10
2018-03-25T23:35:46.681Z,85.37
2018-03-25T23:38:14.243Z,89.43
2018-03-25T23:40:41.776Z,97.30
2018-03-25T23:43:09.345Z,102.63
2018-03-25T23:45:36.892Z,88.63
2018-03-25T23:48:05.228Z,91.30
2018-03-25T23:50:32.788Z,87.20
2018-03-25T23:53:00.344Z,86.10
2018-03-25T23:55:27.870Z,88.03
2018-03-25T23:57:55.446Z,86.10
